sensor_id;sensor_type;location;lat;lon;timestamp;pressure;altitude;pressure_sealevel;temperature;humidity
61740;BME280;47645;45.288;12.038;2022-09-12T00:03:41;1015.7649878992072;;;19.6677734375;87.40630774664396
61740;BME280;47645;45.288;12.038;2022-09-12T00:13:42;1015.732900540351;;;19.8615234375;85.52489139725539
61740;BME280;47645;45.288;12.038;2022-09-12T00:23:44;1015.7549970929583;;;19.713671875;84.86536315862041
61740;BME280;47645;45.288;12.038;2022-09-12T00:33:45;1015.5935280005222;;;19.9888671875;75.84092505371994
61740;BME280;47645;45.288;12.038;2022-09-12T00:43:47;1015.5550851665608;;;19.733984375;77.24864387239613
61740;BME280;47645;45.288;12.038;2022-09-12T00:53:49;1015.6064538207678;;;20.2232421875;72.76909333186344
61740;BME280;47645;45.288;12.038;2022-09-12T01:03:49;1015.6389476457663;;;20.0958984375;73.79981502723491
61740;BME280;47645;45.288;12.038;2022-09-12T01:13:49;1015.6269345017444;;;20.055078125;79.90324761347678
61740;BME280;47645;45.288;12.038;2022-09-12T01:25:04;1015.6594202638148;;;19.3771484375;86.0299792489031
61740;BME280;47645;45.288;12.038;2022-09-12T01:33:57;1015.5756034260706;;;19.8970703125;73.5692190762359
61740;BME280;47645;45.288;12.038;2022-09-12T01:44:01;1015.5773148190204;;;20.065234375;71.91063290136188
61740;BME280;47645;45.288;12.038;2022-09-12T01:54:00;1015.5535929346992;;;19.9888671875;72.98428231863424
61740;BME280;47645;45.288;12.038;2022-09-12T02:04:01;1015.4563079706821;;;19.8767578125;73.98218641480493
61740;BME280;47645;45.288;12.038;2022-09-12T02:14:00;1015.4147794760086;;;19.5607421875;73.36772643861939
61740;BME280;47645;45.288;12.038;2022-09-12T02:24:01;1015.3540924341604;;;19.8359375;71.45058259454925
61740;BME280;47645;45.288;12.038;2022-09-12T02:34:09;1015.2422374089115;;;19.927734375;70.68383178675012
61740;BME280;47645;45.288;12.038;2022-09-12T02:44:01;1015.2119204350504;;;19.723828125;74.26476592991341
61740;BME280;47645;45.288;12.038;2022-09-12T02:54:02;1015.1861321268972;;;19.6677734375;72.25631172252609
61740;BME280;47645;45.288;12.038;2022-09-12T03:04:18;1015.165102618707;;;19.3873046875;72.48013555452681
61740;BME280;47645;45.288;12.038;2022-09-12T03:14:11;1015.1968032490075;;;19.2345703125;74.77657042313781
61740;BME280;47645;45.288;12.038;2022-09-12T03:24:11;1015.1967385043844;;;19.43828125;75.0980823230405
61740;BME280;47645;45.288;12.038;2022-09-12T03:34:12;1015.2750968115738;;;19.53515625;71.56043731476971
61740;BME280;47645;45.288;12.038;2022-09-12T03:44:07;1015.2481582588265;;;19.1681640625;74.50535870140573
61740;BME280;47645;45.288;12.038;2022-09-12T03:54:09;1015.2679524001696;;;19.3873046875;70.8172405153174
61740;BME280;47645;45.288;12.038;2022-09-12T04:04:10;1015.275608084447;;;19.101953125;74.17673172957137
61740;BME280;47645;45.288;12.038;2022-09-12T04:14:11;1015.3478257685852;;;18.9541015625;75.62621232688821
61740;BME280;47645;45.288;12.038;2022-09-12T04:24:12;1015.3353378978335;;;18.9439453125;74.05112198422421
61740;BME280;47645;45.288;12.038;2022-09-12T04:34:13;1015.3057457730938;;;18.6380859375;77.53667987192715
61740;BME280;47645;45.288;12.038;2022-09-12T04:44:15;1015.4135704050414;;;18.4037109375;75.83683372799263
61740;BME280;47645;45.288;12.038;2022-09-12T04:54:17;1015.4790996623626;;;18.7349609375;72.87454234989416
61740;BME280;47645;45.288;12.038;2022-09-12T05:04:17;1015.473056198829;;;18.9236328125;71.85706159939528
61740;BME280;47645;45.288;12.038;2022-09-12T05:14:18;1015.532370078753;;;18.877734375;72.28943315933824
61740;BME280;47645;45.288;12.038;2022-09-12T05:24:19;1015.6366064528509;;;18.903125;76.08153249042543
61740;BME280;47645;45.288;12.038;2022-09-12T05:34:21;1015.651793677851;;;18.480078125;79.55748725122436
61740;BME280;47645;45.288;12.038;2022-09-12T05:44:21;1015.778441044617;;;18.4037109375;79.7586786374253
61740;BME280;47645;45.288;12.038;2022-09-12T05:54:25;1015.8790838069384;;;18.791015625;79.0483192014338
61740;BME280;47645;45.288;12.038;2022-09-12T06:04:28;1015.8781553490368;;;18.8419921875;77.09969805341822
61740;BME280;47645;45.288;12.038;2022-09-12T06:14:25;1015.8518367739539;;;19.0408203125;76.28456080574499
61740;BME280;47645;45.288;12.038;2022-09-12T06:24:27;1015.8971546628148;;;19.3466796875;75.21145159295716
61740;BME280;47645;45.288;12.038;2022-09-12T06:34:28;1015.9478866013808;;;19.305859375;74.22660837627642
61740;BME280;47645;45.288;12.038;2022-09-12T06:44:29;1015.9486161891535;;;19.6015625;74.95912769387517
61740;BME280;47645;45.288;12.038;2022-09-12T06:54:30;1015.9886956883884;;;19.744140625;74.02228493876463
61740;BME280;47645;45.288;12.038;2022-09-12T07:04:33;1015.9347074574699;;;19.9021484375;73.7440949212437
61740;BME280;47645;45.288;12.038;2022-09-12T07:14:32;1015.9449009415534;;;20.248828125;72.90741396401012
61740;BME280;47645;45.288;12.038;2022-09-12T07:24:33;1015.9582526580317;;;20.539453125;72.8720952620012
61740;BME280;47645;45.288;12.038;2022-09-12T07:34:35;1015.9321078307426;;;20.773828125;72.04706221794562
61740;BME280;47645;45.288;12.038;2022-09-12T07:44:36;1015.9376868350182;;;21.0185546875;72.20138302730554
61740;BME280;47645;45.288;12.038;2022-09-12T07:54:37;1015.9708715207178;;;21.51796875;69.81899413828066
61740;BME280;47645;45.288;12.038;2022-09-12T08:04:39;1016.0001282424018;;;21.8646484375;68.39134588787381
61740;BME280;47645;45.288;12.038;2022-09-12T08:14:40;1016.015287056626;;;22.114453125;64.85535340524558
61740;BME280;47645;45.288;12.038;2022-09-12T08:24:41;1016.0268723129107;;;22.5732421875;63.12227773430084
61740;BME280;47645;45.288;12.038;2022-09-12T08:34:42;1015.9850168824514;;;22.7056640625;61.37415589274433
61740;BME280;47645;45.288;12.038;2022-09-12T08:44:55;1015.9972988287426;;;23.164453125;62.96306867815805
61740;BME280;47645;45.288;12.038;2022-09-12T08:54:45;1016.0236210977976;;;23.6181640625;60.38236578146952
61740;BME280;47645;45.288;12.038;2022-09-12T09:04:49;1015.9673251686712;;;23.893359375;59.238343169882164
61740;BME280;47645;45.288;12.038;2022-09-12T09:15:00;1015.8972392743434;;;24.16875;58.18976884314302
61740;BME280;47645;45.288;12.038;2022-09-12T09:24:52;1015.8675388300197;;;24.3623046875;58.491044892115184
61740;BME280;47645;45.288;12.038;2022-09-12T09:34:51;1015.7497193092926;;;24.69375;58.44699467507928
61740;BME280;47645;45.288;12.038;2022-09-12T09:44:53;1015.7328298621551;;;25.341015625;56.99937841012082
61740;BME280;47645;45.288;12.038;2022-09-12T09:54:57;1015.761190441726;;;25.8048828125;51.84802548768304
61740;BME280;47645;45.288;12.038;2022-09-12T10:04:56;1015.7274022143646;;;26.651171875;52.44889905487355
61740;BME280;47645;45.288;12.038;2022-09-12T10:14:57;1015.578689351045;;;27.4259765625;47.77530906596103
61740;BME280;47645;45.288;12.038;2022-09-12T10:24:58;1015.6502872099488;;;27.787890625;44.48812362973715
61740;BME280;47645;45.288;12.038;2022-09-12T10:35:01;1015.5622633801888;;;28.379296875;44.509743380366224
61740;BME280;47645;45.288;12.038;2022-09-12T10:45:01;1015.6158585489015;;;28.8125;45.97329382520058
61740;BME280;47645;45.288;12.038;2022-09-12T10:55:07;1015.5376465549555;;;30.2654296875;45.10254291878974
61740;BME280;47645;45.288;12.038;2022-09-12T11:00:10;1015.4780910826751;;;30.5966796875;39.639859087680804
61740;BME280;47645;45.288;12.038;2022-09-12T11:10:17;1015.4335516685188;;;30.3521484375;39.6175587863169
61740;BME280;47645;45.288;12.038;2022-09-12T11:20:47;1015.4029564226157;;;31.8712890625;41.565418702998485
61740;BME280;47645;45.288;12.038;2022-09-12T11:30:13;1015.3143090266038;;;33.1099609375;40.063956346523256
61740;BME280;47645;45.288;12.038;2022-09-12T11:40:24;1015.2164521074722;;;33.96640625;37.8692600818965
61740;BME280;47645;45.288;12.038;2022-09-12T11:50:19;1015.2219138940164;;;34.251953125;34.285701003843904
61740;BME280;47645;45.288;12.038;2022-09-12T12:00:19;1015.1614780430356;;;33.3955078125;35.91071832053328
61740;BME280;47645;45.288;12.038;2022-09-12T12:10:24;1015.0961441382706;;;33.1865234375;38.32617638214131
61740;BME280;47645;45.288;12.038;2022-09-12T12:20:19;1015.0442732642089;;;32.9775390625;43.098367581225084
61740;BME280;47645;45.288;12.038;2022-09-12T12:31:02;1014.980336783809;;;31.55;36.884704492229396
61740;BME280;47645;45.288;12.038;2022-09-12T12:40:29;1014.909711798102;;;32.74296875;42.44919892462517
61740;BME280;47645;45.288;12.038;2022-09-12T12:50:28;1014.8420591061337;;;33.34453125;40.77184966997769
61740;BME280;47645;45.288;12.038;2022-09-12T13:00:29;1014.7029460681147;;;33.94609375;39.5389939187683
61740;BME280;47645;45.288;12.038;2022-09-12T13:10:32;1014.5506987286601;;;34.1091796875;39.93460259076086
61740;BME280;47645;45.288;12.038;2022-09-12T13:20:34;1014.4650730882718;;;34.0837890625;39.61506229665352
61740;BME280;47645;45.288;12.038;2022-09-12T13:30:34;1014.4211149500037;;;33.95625;40.24909545003291
61740;BME280;47645;45.288;12.038;2022-09-12T13:40:37;1014.2900467820851;;;33.665625;42.75690431923828
61740;BME280;47645;45.288;12.038;2022-09-12T13:50:40;1014.1870173161547;;;34.0888671875;39.360482214429354
61740;BME280;47645;45.288;12.038;2022-09-12T14:00:37;1014.1394691492061;;;34.3130859375;40.64415113869376
61740;BME280;47645;45.288;12.038;2022-09-12T14:10:40;1014.0080218402566;;;34.37421875;37.989595116995105
61740;BME280;47645;45.288;12.038;2022-09-12T14:20:42;1013.9267195130799;;;34.4048828125;40.164024066822044
61740;BME280;47645;45.288;12.038;2022-09-12T14:30:57;1013.7990201534559;;;34.2927734375;40.25933781515204
61740;BME280;47645;45.288;12.038;2022-09-12T14:40:46;1013.691468081421;;;33.864453125;39.23185031792318
61740;BME280;47645;45.288;12.038;2022-09-12T14:50:48;1013.7203695551486;;;33.73203125;42.035856486154586
61740;BME280;47645;45.288;12.038;2022-09-12T15:00:53;1013.6755324103509;;;33.466796875;41.752429936471685
61740;BME280;47645;45.288;12.038;2022-09-12T15:10:49;1013.6005654472351;;;33.446484375;42.868903525033076
61740;BME280;47645;45.288;12.038;2022-09-12T15:20:53;1013.6372135582844;;;33.2220703125;42.69150677002684
61740;BME280;47645;45.288;12.038;2022-09-12T15:30:54;1013.4634363104291;;;32.8857421875;43.870825675824555
61740;BME280;47645;45.288;12.038;2022-09-12T15:40:54;1013.4418020030347;;;32.3453125;44.79341443034343
61740;BME280;47645;45.288;12.038;2022-09-12T15:51:01;1013.4402447972349;;;32.019140625;44.17946349906675
61740;BME280;47645;45.288;12.038;2022-09-12T16:00:59;1013.4199446304367;;;31.1880859375;45.90211862954416
61740;BME280;47645;45.288;12.038;2022-09-12T16:11:03;1013.372624525552;;;30.729296875;45.85103068983288
61740;BME280;47645;45.288;12.038;2022-09-12T16:21:01;1013.3627704686947;;;30.000390625;47.78218791938013
61740;BME280;47645;45.288;12.038;2022-09-12T16:31:08;1013.3588860221005;;;29.3783203125;50.09927975750042
61740;BME280;47645;45.288;12.038;2022-09-12T16:41:06;1013.2730052302464;;;28.89921875;52.41770949596813
61740;BME280;47645;45.288;12.038;2022-09-12T16:51:08;1013.3386401873072;;;28.3078125;53.27613668201201
61740;BME280;47645;45.288;12.038;2022-09-12T17:01:10;1013.2987286645122;;;28.0376953125;51.977474503493276
61740;BME280;47645;45.288;12.038;2022-09-12T17:11:11;1013.3279713648257;;;27.701171875;53.15577024444214
61740;BME280;47645;45.288;12.038;2022-09-12T17:21:12;1013.3850261498255;;;27.2220703125;54.66424047262718
61740;BME280;47645;45.288;12.038;2022-09-12T17:31:15;1013.4616627383573;;;26.9111328125;55.83847306852468
61740;BME280;47645;45.288;12.038;2022-09-12T17:41:17;1013.4512068469326;;;26.4982421875;56.50836376696605
61740;BME280;47645;45.288;12.038;2022-09-12T17:51:15;1013.5323619288628;;;26.136328125;56.15996183874054
61740;BME280;47645;45.288;12.038;2022-09-12T18:02:22;1013.5987197189777;;;25.922265625;57.101641873639885
61740;BME280;47645;45.288;12.038;2022-09-12T18:11:19;1013.7179314889613;;;25.5806640625;57.60349952221443
61740;BME280;47645;45.288;12.038;2022-09-12T18:21:20;1013.9264308770565;;;25.32578125;59.13574993820692
61740;BME280;47645;45.288;12.038;2022-09-12T18:31:24;1013.9594585486032;;;25.0455078125;59.55760579462063
61740;BME280;47645;45.288;12.038;2022-09-12T18:41:24;1014.0460894580838;;;24.7345703125;60.09771220712453
61740;BME280;47645;45.288;12.038;2022-09-12T18:51:27;1014.0555490171075;;;24.5560546875;60.79837184736771
61740;BME280;47645;45.288;12.038;2022-09-12T19:01:27;1014.1359827562285;;;24.3419921875;61.30689202267585
61740;BME280;47645;45.288;12.038;2022-09-12T19:11:28;1014.2958672022789;;;24.1431640625;61.47583962451444
61740;BME280;47645;45.288;12.038;2022-09-12T19:21:30;1014.2899311372744;;;23.9953125;61.62471277282792
61740;BME280;47645;45.288;12.038;2022-09-12T19:31:30;1014.2285744779174;;;23.7201171875;62.37018847481307
61740;BME280;47645;45.288;12.038;2022-09-12T19:41:32;1014.2357055964588;;;23.57734375;62.702656584581774
61740;BME280;47645;45.288;12.038;2022-09-12T19:51:36;1014.1966060820373;;;23.4091796875;62.93521755245665
61740;BME280;47645;45.288;12.038;2022-09-12T20:01:38;1014.2969993298975;;;23.2357421875;63.075720664879924
61740;BME280;47645;45.288;12.038;2022-09-12T20:11:37;1014.2493992210694;;;23.164453125;63.15192871160338
61740;BME280;47645;45.288;12.038;2022-09-12T20:21:37;1014.280183956298;;;23.037109375;63.49535723195043
61740;BME280;47645;45.288;12.038;2022-09-12T20:31:40;1014.2771397023471;;;22.8943359375;63.9130944670499
61740;BME280;47645;45.288;12.038;2022-09-12T20:41:41;1014.2596485581;;;22.76171875;63.88782804573943
61740;BME280;47645;45.288;12.038;2022-09-12T20:51:43;1014.2483539115258;;;22.6087890625;64.20716037703608
61740;BME280;47645;45.288;12.038;2022-09-12T21:01:43;1014.3527283951813;;;22.5068359375;64.35008265485055
61740;BME280;47645;45.288;12.038;2022-09-12T21:11:44;1014.3413505415363;;;22.2927734375;64.86576244611297
61740;BME280;47645;45.288;12.038;2022-09-12T21:21:45;1014.3438822587019;;;22.211328125;64.8037417241363
61740;BME280;47645;45.288;12.038;2022-09-12T21:31:46;1014.5137426839677;;;21.9359375;65.77824520324222
61740;BME280;47645;45.288;12.038;2022-09-12T21:41:47;1014.4983193584235;;;21.721875;66.1834474560153
61740;BME280;47645;45.288;12.038;2022-09-12T21:51:50;1014.406060317603;;;21.8953125;65.2037956723174
61740;BME280;47645;45.288;12.038;2022-09-12T22:01:50;1014.3552864428945;;;21.90546875;64.85007656465527
61740;BME280;47645;45.288;12.038;2022-09-12T22:11:51;1014.4184700432437;;;21.7525390625;65.12203474143178
61740;BME280;47645;45.288;12.038;2022-09-12T22:31:54;1014.3644893118632;;;21.5078125;65.71334468009464
61740;BME280;47645;45.288;12.038;2022-09-12T22:41:55;1014.294999251338;;;21.4619140625;65.2419867277656
61740;BME280;47645;45.288;12.038;2022-09-12T22:51:56;1014.3123610051163;;;21.38046875;65.40330362924624
61740;BME280;47645;45.288;12.038;2022-09-12T23:01:58;1014.3648166615011;;;20.967578125;67.04626227346196
61740;BME280;47645;45.288;12.038;2022-09-12T23:11:59;1014.2339174118401;;;20.3150390625;70.65454947486099
61740;BME280;47645;45.288;12.038;2022-09-12T23:22:00;1014.2671329701452;;;20.9369140625;66.62803293522833
61740;BME280;47645;45.288;12.038;2022-09-12T23:32:02;1014.2031841147632;;;20.9419921875;66.45690880971127
61740;BME280;47645;45.288;12.038;2022-09-12T23:42:03;1014.2144501162863;;;20.6056640625;68.03218150036385
61740;BME280;47645;45.288;12.038;2022-09-12T23:52:04;1014.2593731393409;;;20.539453125;70.39648973791074
